Whidbey Island Naval Air Station, Ault Field, Airport Oak Harbor US
ICAO: KNUW
IATA: NUW
Category: Medium
Scheduled Services: No

Elevation: 47 ft
TransAlt. 18000 ft.

Airport Communications:
APP/DEP:118.2
ATIS:134.15
CLNC DEL:124.15
GND:121.75
BASE OPS:35.01
PMSV METRO:34.34
TWR:127.9

KNUW Zoom In..

If you have problems with the map follow the link
https://www.worldairports.se/pages/airport.php?
ICAO=KNUW

Runways:

(A) RW 07 length 8000 ft width 200 ft
---- / hdg 69

(B) RW 14 length 8001 ft width 200 ft
ILS 110.10 / hdg 137

(C) RW 25 length 8000 ft width 200 ft
---- / hdg 249

(D) RW 32 length 8001 ft width 200 ft
---- / hdg 317

Location; KNUW
Day. 07 / Time. 08.56 Zulu
* Altimeter: 29.80
* Temperature: 09° c. 48.2°f.
* Wind from: 110° Speed 03 kn.
Dewpoint: 06° c.
Visibility: 10 Statute Miles.
Clouds: Broken 6000 ft.
Clouds: Overcast 1000 ft.
Conditions: Light Rain.

KNUW 070856Z 11003KT 10SM -RA BKN060 OVC100 09/06 A2980 RMK AO2 SLP089 P0002 60002 T00890061 56009 $


Wind From 110°
Speed 03 kn.

 
 
jpsmedia worldairports.se 2019   terms of use